sensor_id;sensor_type;location;lat;lon;timestamp;pressure;altitude;pressure_sealevel;temperature;humidity
7168;BME280;3625;51.762;14.320;2023-02-11T05:04:35;101961.75;;;4.19;100.00
7168;BME280;3625;51.762;14.320;2023-02-11T05:07:07;101961.97;;;4.27;100.00
7168;BME280;3625;51.762;14.320;2023-02-11T05:09:36;101960.19;;;4.26;100.00
7168;BME280;3625;51.762;14.320;2023-02-11T05:12:13;101958.34;;;4.22;100.00
7168;BME280;3625;51.762;14.320;2023-02-11T05:15:00;101945.22;;;4.20;100.00
7168;BME280;3625;51.762;14.320;2023-02-11T05:17:34;101948.81;;;4.25;100.00
7168;BME280;3625;51.762;14.320;2023-02-11T05:20:10;101944.38;;;4.21;100.00
7168;BME280;3625;51.762;14.320;2023-02-11T05:22:44;101948.78;;;4.22;100.00
7168;BME280;3625;51.762;14.320;2023-02-11T05:25:29;101946.09;;;4.21;100.00
7168;BME280;3625;51.762;14.320;2023-02-11T05:28:54;101946.97;;;4.21;100.00
7168;BME280;3625;51.762;14.320;2023-02-11T05:35:17;101945.16;;;4.18;100.00
7168;BME280;3625;51.762;14.320;2023-02-11T05:37:58;101947.94;;;4.23;100.00
7168;BME280;3625;51.762;14.320;2023-02-11T05:40:33;101937.34;;;4.20;100.00
7168;BME280;3625;51.762;14.320;2023-02-11T05:43:02;101939.09;;;4.20;100.00
7168;BME280;3625;51.762;14.320;2023-02-11T05:45:35;101938.28;;;4.22;100.00
7168;BME280;3625;51.762;14.320;2023-02-11T05:48:20;101934.72;;;4.20;100.00
7168;BME280;3625;51.762;14.320;2023-02-11T05:51:28;101768.97;;;3.27;100.00
7168;BME280;3625;51.762;14.320;2023-02-11T05:54:06;101922.63;;;4.25;100.00
7168;BME280;3625;51.762;14.320;2023-02-11T06:44:04;101899.09;;;4.60;100.00
7168;BME280;3625;51.762;14.320;2023-02-11T06:46:36;101898.38;;;4.65;100.00
7168;BME280;3625;51.762;14.320;2023-02-11T06:49:07;101913.25;;;4.68;100.00
7168;BME280;3625;51.762;14.320;2023-02-11T06:51:45;101899.31;;;4.69;100.00
7168;BME280;3625;51.762;14.320;2023-02-11T06:54:14;101916.78;;;4.68;100.00
7168;BME280;3625;51.762;14.320;2023-02-11T06:56:49;101914.34;;;4.76;100.00
7168;BME280;3625;51.762;14.320;2023-02-11T06:59:26;101920.50;;;4.78;100.00
7168;BME280;3625;51.762;14.320;2023-02-11T07:01:57;101923.09;;;4.75;100.00
7168;BME280;3625;51.762;14.320;2023-02-11T07:04:26;101911.81;;;4.79;100.00
7168;BME280;3625;51.762;14.320;2023-02-11T07:06:55;101911.94;;;4.85;100.00
7168;BME280;3625;51.762;14.320;2023-02-11T07:09:24;101920.69;;;4.84;100.00
7168;BME280;3625;51.762;14.320;2023-02-11T07:11:53;101924.22;;;4.86;100.00
7168;BME280;3625;51.762;14.320;2023-02-11T07:14:23;101934.69;;;4.86;100.00
7168;BME280;3625;51.762;14.320;2023-02-11T07:16:53;101936.59;;;4.91;100.00
7168;BME280;3625;51.762;14.320;2023-02-11T07:19:22;101927.84;;;4.91;100.00
7168;BME280;3625;51.762;14.320;2023-02-11T07:21:51;101939.19;;;4.90;100.00
7168;BME280;3625;51.762;14.320;2023-02-11T07:24:20;101936.59;;;4.91;100.00
7168;BME280;3625;51.762;14.320;2023-02-11T07:26:49;101940.13;;;4.92;100.00
7168;BME280;3625;51.762;14.320;2023-02-11T07:29:18;101937.31;;;4.86;100.00
7168;BME280;3625;51.762;14.320;2023-02-11T07:31:55;101935.59;;;4.86;100.00
7168;BME280;3625;51.762;14.320;2023-02-11T07:34:28;101927.75;;;4.88;100.00
7168;BME280;3625;51.762;14.320;2023-02-11T07:36:57;101922.59;;;4.91;100.00
7168;BME280;3625;51.762;14.320;2023-02-11T07:39:26;101925.28;;;4.94;100.00
7168;BME280;3625;51.762;14.320;2023-02-11T07:41:56;101921.09;;;5.02;100.00
7168;BME280;3625;51.762;14.320;2023-02-11T07:44:25;101914.97;;;5.00;100.00
7168;BME280;3625;51.762;14.320;2023-02-11T07:46:56;101912.28;;;4.99;100.00
7168;BME280;3625;51.762;14.320;2023-02-11T07:49:25;101909.00;;;5.07;100.00
7168;BME280;3625;51.762;14.320;2023-02-11T07:51:54;101898.22;;;4.95;100.00
7168;BME280;3625;51.762;14.320;2023-02-11T07:54:23;101899.28;;;5.03;100.00
7168;BME280;3625;51.762;14.320;2023-02-11T07:56:52;101896.16;;;5.19;100.00
7168;BME280;3625;51.762;14.320;2023-02-11T07:59:21;101887.78;;;5.36;100.00
7168;BME280;3625;51.762;14.320;2023-02-11T08:01:51;101901.28;;;5.52;100.00
7168;BME280;3625;51.762;14.320;2023-02-11T08:04:22;101889.28;;;5.65;100.00
7168;BME280;3625;51.762;14.320;2023-02-11T08:06:53;101891.97;;;5.68;100.00
7168;BME280;3625;51.762;14.320;2023-02-11T08:09:26;101887.69;;;5.73;100.00
7168;BME280;3625;51.762;14.320;2023-02-11T08:11:58;101881.53;;;5.69;100.00
7168;BME280;3625;51.762;14.320;2023-02-11T08:14:27;101886.81;;;5.73;100.00
7168;BME280;3625;51.762;14.320;2023-02-11T08:17:01;101881.59;;;5.74;100.00
7168;BME280;3625;51.762;14.320;2023-02-11T08:19:34;101881.66;;;5.77;100.00
7168;BME280;3625;51.762;14.320;2023-02-11T08:22:03;101885.09;;;5.75;100.00
7168;BME280;3625;51.762;14.320;2023-02-11T08:24:32;101892.22;;;5.80;100.00
7168;BME280;3625;51.762;14.320;2023-02-11T08:27:01;101886.25;;;5.87;100.00
7168;BME280;3625;51.762;14.320;2023-02-11T08:29:36;101903.88;;;5.91;100.00
7168;BME280;3625;51.762;14.320;2023-02-11T08:32:11;101910.19;;;6.01;100.00
7168;BME280;3625;51.762;14.320;2023-02-11T08:35:18;101900.97;;;6.21;100.00
7168;BME280;3625;51.762;14.320;2023-02-11T08:37:47;101908.91;;;6.26;100.00
7168;BME280;3625;51.762;14.320;2023-02-11T08:40:22;101913.47;;;6.36;100.00
7168;BME280;3625;51.762;14.320;2023-02-11T08:43:00;101906.44;;;6.35;100.00
7168;BME280;3625;51.762;14.320;2023-02-11T08:45:34;101901.28;;;6.39;100.00
7168;BME280;3625;51.762;14.320;2023-02-11T08:48:12;101901.28;;;6.39;100.00
7168;BME280;3625;51.762;14.320;2023-02-11T08:50:45;101895.13;;;6.37;100.00
7168;BME280;3625;51.762;14.320;2023-02-11T08:53:22;101906.56;;;6.39;100.00
7168;BME280;3625;51.762;14.320;2023-02-11T08:55:54;101717.00;;;5.25;100.00
7168;BME280;3625;51.762;14.320;2023-02-11T08:58:26;101914.44;;;6.39;100.00
7168;BME280;3625;51.762;14.320;2023-02-11T09:00:58;101920.72;;;6.48;100.00
7168;BME280;3625;51.762;14.320;2023-02-11T09:03:32;101929.78;;;6.66;100.00
7168;BME280;3625;51.762;14.320;2023-02-11T09:06:10;101931.72;;;6.76;100.00
7168;BME280;3625;51.762;14.320;2023-02-11T09:08:59;101922.09;;;6.77;100.00
7168;BME280;3625;51.762;14.320;2023-02-11T09:11:31;101730.28;;;5.79;100.00
7168;BME280;3625;51.762;14.320;2023-02-11T09:14:16;101718.72;;;5.71;100.00
7168;BME280;3625;51.762;14.320;2023-02-11T09:16:50;101927.19;;;7.22;100.00
7168;BME280;3625;51.762;14.320;2023-02-11T09:19:21;101923.16;;;7.45;100.00
7168;BME280;3625;51.762;14.320;2023-02-11T09:21:52;101903.09;;;7.55;100.00
7168;BME280;3625;51.762;14.320;2023-02-11T09:24:22;101905.56;;;7.44;100.00
7168;BME280;3625;51.762;14.320;2023-02-11T09:26:51;101909.25;;;7.55;100.00
7168;BME280;3625;51.762;14.320;2023-02-11T09:29:29;101909.75;;;7.96;99.09
7168;BME280;3625;51.762;14.320;2023-02-11T09:32:07;101888.06;;;8.19;97.41
7168;BME280;3625;51.762;14.320;2023-02-11T09:34:37;101883.72;;;8.25;96.49
7168;BME280;3625;51.762;14.320;2023-02-11T09:37:10;101887.16;;;8.17;96.23
7168;BME280;3625;51.762;14.320;2023-02-11T09:39:39;101873.13;;;8.19;96.30
7168;BME280;3625;51.762;14.320;2023-02-11T09:42:22;101879.97;;;8.02;96.83
7168;BME280;3625;51.762;14.320;2023-02-11T09:45:00;101739.88;;;7.60;96.17
7168;BME280;3625;51.762;14.320;2023-02-11T09:49:25;101786.19;;;8.25;94.40
7168;BME280;3625;51.762;14.320;2023-02-11T09:50:53;101776.72;;;7.58;94.31
7168;BME280;3625;51.762;14.320;2023-02-11T09:53:39;101888.78;;;8.06;95.55
7168;BME280;3625;51.762;14.320;2023-02-11T09:56:14;101834.53;;;7.47;95.99
7168;BME280;3625;51.762;14.320;2023-02-11T09:58:44;101645.28;;;6.28;97.06
7168;BME280;3625;51.762;14.320;2023-02-11T10:01:32;101750.88;;;6.60;98.29
7168;BME280;3625;51.762;14.320;2023-02-11T10:04:13;101914.81;;;7.80;98.53
7168;BME280;3625;51.762;14.320;2023-02-11T10:06:52;101913.91;;;7.75;98.80
7168;BME280;3625;51.762;14.320;2023-02-11T10:09:51;101842.09;;;7.22;99.27
7168;BME280;3625;51.762;14.320;2023-02-11T10:12:49;101657.34;;;6.16;98.96
7168;BME280;3625;51.762;14.320;2023-02-11T10:15:37;101694.41;;;6.34;99.72
7168;BME280;3625;51.762;14.320;2023-02-11T10:18:39;101877.56;;;7.49;100.00
7168;BME280;3625;51.762;14.320;2023-02-11T10:21:24;101732.72;;;6.77;99.83
7168;BME280;3625;51.762;14.320;2023-02-11T10:24:03;101918.50;;;7.91;98.60
7168;BME280;3625;51.762;14.320;2023-02-11T10:26:40;101919.16;;;7.75;100.00
7168;BME280;3625;51.762;14.320;2023-02-11T10:29:33;101915.78;;;7.85;100.00
7168;BME280;3625;51.762;14.320;2023-02-11T10:32:14;101901.53;;;7.68;100.00
7168;BME280;3625;51.762;14.320;2023-02-11T10:34:48;101925.38;;;7.78;100.00
7168;BME280;3625;51.762;14.320;2023-02-11T10:37:21;101927.03;;;7.72;100.00
7168;BME280;3625;51.762;14.320;2023-02-11T10:39:49;101921.47;;;7.50;100.00
7168;BME280;3625;51.762;14.320;2023-02-11T10:42:26;101904.81;;;7.51;100.00
7168;BME280;3625;51.762;14.320;2023-02-11T10:45:02;101890.78;;;7.51;100.00
7168;BME280;3625;51.762;14.320;2023-02-11T10:47:36;101624.47;;;5.86;100.00
7168;BME280;3625;51.762;14.320;2023-02-11T10:50:21;101788.84;;;6.77;100.00
7168;BME280;3625;51.762;14.320;2023-02-11T10:53:11;101770.13;;;6.56;100.00
7168;BME280;3625;51.762;14.320;2023-02-11T10:55:53;101807.09;;;6.65;100.00
7168;BME280;3625;51.762;14.320;2023-02-11T10:58:40;101805.28;;;6.63;100.00
7168;BME280;3625;51.762;14.320;2023-02-11T11:01:45;101577.72;;;5.64;100.00
7168;BME280;3625;51.762;14.320;2023-02-11T11:04:38;101897.81;;;7.53;100.00
7168;BME280;3625;51.762;14.320;2023-02-11T11:07:21;101591.19;;;5.85;100.00
7168;BME280;3625;51.762;14.320;2023-02-11T11:09:56;101904.91;;;7.57;100.00
7168;BME280;3625;51.762;14.320;2023-02-11T11:12:32;101601.03;;;5.98;100.00
7168;BME280;3625;51.762;14.320;2023-02-11T11:15:17;101745.84;;;6.74;100.00
7168;BME280;3625;51.762;14.320;2023-02-11T11:17:48;101896.25;;;7.68;100.00
7168;BME280;3625;51.762;14.320;2023-02-11T11:20:25;101597.22;;;5.78;100.00
7168;BME280;3625;51.762;14.320;2023-02-11T11:23:15;101583.84;;;5.61;100.00
7168;BME280;3625;51.762;14.320;2023-02-11T11:26:04;101666.66;;;5.94;100.00
7168;BME280;3625;51.762;14.320;2023-02-11T11:29:01;101917.00;;;7.43;100.00
7168;BME280;3625;51.762;14.320;2023-02-11T11:32:17;101601.31;;;5.61;100.00
7168;BME280;3625;51.762;14.320;2023-02-11T11:36:02;101680.00;;;6.07;100.00
7168;BME280;3625;51.762;14.320;2023-02-11T11:38:43;101575.81;;;5.54;100.00
7168;BME280;3625;51.762;14.320;2023-02-11T11:41:24;101782.97;;;6.97;100.00
7168;BME280;3625;51.762;14.320;2023-02-11T11:44:26;101534.63;;;5.50;100.00
7168;BME280;3625;51.762;14.320;2023-02-11T11:47:50;101887.25;;;7.53;100.00
7168;BME280;3625;51.762;14.320;2023-02-11T11:51:00;101626.47;;;5.99;100.00
7168;BME280;3625;51.762;14.320;2023-02-11T11:54:30;101696.31;;;6.44;100.00
7168;BME280;3625;51.762;14.320;2023-02-11T11:57:30;101723.56;;;6.51;100.00
7168;BME280;3625;51.762;14.320;2023-02-11T12:00:35;101696.28;;;6.42;100.00
7168;BME280;3625;51.762;14.320;2023-02-11T12:05:00;101568.22;;;5.72;100.00
7168;BME280;3625;51.762;14.320;2023-02-11T12:07:52;101774.31;;;7.05;100.00
7168;BME280;3625;51.762;14.320;2023-02-11T12:11:10;101809.47;;;7.09;100.00
7168;BME280;3625;51.762;14.320;2023-02-11T12:14:12;101524.06;;;5.45;100.00
7168;BME280;3625;51.762;14.320;2023-02-11T12:17:01;101738.72;;;6.68;100.00
7168;BME280;3625;51.762;14.320;2023-02-11T12:19:53;101760.97;;;6.90;100.00
7168;BME280;3625;51.762;14.320;2023-02-11T12:22:42;101703.44;;;6.51;100.00
7168;BME280;3625;51.762;14.320;2023-02-11T12:25:26;101790.13;;;7.07;100.00
7168;BME280;3625;51.762;14.320;2023-02-11T12:28:09;101853.69;;;7.37;100.00
7168;BME280;3625;51.762;14.320;2023-02-11T12:31:04;101629.16;;;6.05;100.00
7168;BME280;3625;51.762;14.320;2023-02-11T12:34:14;101816.53;;;7.13;100.00
7168;BME280;3625;51.762;14.320;2023-02-11T12:47:20;101888.19;;;7.57;100.00
7168;BME280;3625;51.762;14.320;2023-02-11T12:50:47;101715.00;;;6.62;100.00
7168;BME280;3625;51.762;14.320;2023-02-11T12:53:43;101882.00;;;7.52;100.00
7168;BME280;3625;51.762;14.320;2023-02-11T12:56:30;101740.44;;;6.66;100.00
7168;BME280;3625;51.762;14.320;2023-02-11T12:59:27;101686.47;;;6.29;100.00
7168;BME280;3625;51.762;14.320;2023-02-11T13:02:03;101873.03;;;7.39;100.00
7168;BME280;3625;51.762;14.320;2023-02-11T13:04:37;101855.53;;;7.41;100.00
7168;BME280;3625;51.762;14.320;2023-02-11T13:07:14;101841.19;;;7.21;100.00
7168;BME280;3625;51.762;14.320;2023-02-11T13:09:58;101547.84;;;5.56;100.00
7168;BME280;3625;51.762;14.320;2023-02-11T13:16:01;101754.59;;;6.73;100.00
7168;BME280;3625;51.762;14.320;2023-02-11T13:18:55;101537.25;;;5.50;100.00
7168;BME280;3625;51.762;14.320;2023-02-11T13:21:49;101584.84;;;5.71;100.00
7168;BME280;3625;51.762;14.320;2023-02-11T13:24:32;101577.03;;;5.76;100.00
7168;BME280;3625;51.762;14.320;2023-02-11T13:27:16;101845.63;;;7.24;100.00
7168;BME280;3625;51.762;14.320;2023-02-11T13:30:17;101841.16;;;7.16;100.00
7168;BME280;3625;51.762;14.320;2023-02-11T13:33:17;101681.84;;;6.13;100.00
7168;BME280;3625;51.762;14.320;2023-02-11T13:36:25;101810.88;;;6.86;100.00
7168;BME280;3625;51.762;14.320;2023-02-11T13:39:03;101618.31;;;5.84;100.00
7168;BME280;3625;51.762;14.320;2023-02-11T13:41:38;101599.84;;;5.78;100.00
7168;BME280;3625;51.762;14.320;2023-02-11T13:44:32;101827.84;;;7.06;100.00
7168;BME280;3625;51.762;14.320;2023-02-11T13:47:06;101847.22;;;7.12;100.00
7168;BME280;3625;51.762;14.320;2023-02-11T13:49:40;101832.19;;;7.04;100.00
7168;BME280;3625;51.762;14.320;2023-02-11T13:52:24;101848.19;;;7.19;100.00
7168;BME280;3625;51.762;14.320;2023-02-11T13:55:02;101698.66;;;6.26;100.00
7168;BME280;3625;51.762;14.320;2023-02-11T13:57:36;101846.47;;;7.21;100.00
7168;BME280;3625;51.762;14.320;2023-02-11T14:00:48;101848.94;;;7.09;100.00
7168;BME280;3625;51.762;14.320;2023-02-11T14:03:25;101847.09;;;7.03;100.00
7168;BME280;3625;51.762;14.320;2023-02-11T14:06:18;101816.13;;;6.82;100.00
7168;BME280;3625;51.762;14.320;2023-02-11T14:09:38;101802.91;;;6.79;100.00
7168;BME280;3625;51.762;14.320;2023-02-11T14:12:32;101812.47;;;6.74;100.00
7168;BME280;3625;51.762;14.320;2023-02-11T14:15:24;101841.72;;;6.96;100.00
7168;BME280;3625;51.762;14.320;2023-02-11T14:17:54;101859.47;;;7.09;100.00
7168;BME280;3625;51.762;14.320;2023-02-11T14:20:37;101848.75;;;6.97;100.00
7168;BME280;3625;51.762;14.320;2023-02-11T14:23:23;101741.66;;;6.29;100.00
7168;BME280;3625;51.762;14.320;2023-02-11T14:26:07;101847.06;;;7.00;100.00
7168;BME280;3625;51.762;14.320;2023-02-11T14:28:41;101665.66;;;5.87;100.00
7168;BME280;3625;51.762;14.320;2023-02-11T14:31:18;101854.81;;;6.93;100.00
7168;BME280;3625;51.762;14.320;2023-02-11T14:34:04;101662.91;;;5.81;100.00
7168;BME280;3625;51.762;14.320;2023-02-11T14:37:01;101794.59;;;6.52;100.00
7168;BME280;3625;51.762;14.320;2023-02-11T14:39:55;101594.69;;;5.31;100.00
7168;BME280;3625;51.762;14.320;2023-02-11T14:42:28;101745.78;;;6.15;100.00
7168;BME280;3625;51.762;14.320;2023-02-11T14:45:05;101857.44;;;6.90;100.00
7168;BME280;3625;51.762;14.320;2023-02-11T14:47:43;101809.41;;;6.47;100.00
7168;BME280;3625;51.762;14.320;2023-02-11T14:50:24;101859.94;;;6.82;100.00
7168;BME280;3625;51.762;14.320;2023-02-11T14:53:00;101856.94;;;6.61;100.00
7168;BME280;3625;51.762;14.320;2023-02-11T14:55:37;101525.78;;;4.90;100.00
7168;BME280;3625;51.762;14.320;2023-02-11T14:58:30;101874.81;;;6.80;100.00
7168;BME280;3625;51.762;14.320;2023-02-11T15:01:17;101605.78;;;5.15;100.00
7168;BME280;3625;51.762;14.320;2023-02-11T15:04:13;101575.81;;;5.01;100.00
7168;BME280;3625;51.762;14.320;2023-02-11T15:07:09;101869.44;;;6.75;100.00
7168;BME280;3625;51.762;14.320;2023-02-11T15:09:56;101654.56;;;5.54;100.00
7168;BME280;3625;51.762;14.320;2023-02-11T15:12:28;101883.56;;;6.79;100.00
7168;BME280;3625;51.762;14.320;2023-02-11T15:15:10;101884.44;;;6.79;100.00
7168;BME280;3625;51.762;14.320;2023-02-11T15:17:44;101824.97;;;6.35;100.00
7168;BME280;3625;51.762;14.320;2023-02-11T15:20:21;101793.22;;;6.23;100.00
7168;BME280;3625;51.762;14.320;2023-02-11T15:23:07;101574.03;;;5.00;100.00
7168;BME280;3625;51.762;14.320;2023-02-11T15:25:45;101896.69;;;6.77;100.00
7168;BME280;3625;51.762;14.320;2023-02-11T15:28:23;101687.72;;;5.49;100.00
7168;BME280;3625;51.762;14.320;2023-02-11T15:31:16;101834.41;;;6.24;100.00
7168;BME280;3625;51.762;14.320;2023-02-11T15:33:50;101901.72;;;6.64;100.00
7168;BME280;3625;51.762;14.320;2023-02-11T15:36:23;101792.78;;;5.98;100.00
7168;BME280;3625;51.762;14.320;2023-02-11T15:39:30;101906.13;;;6.66;100.00
7168;BME280;3625;51.762;14.320;2023-02-11T15:42:33;101905.19;;;6.63;100.00
7168;BME280;3625;51.762;14.320;2023-02-11T15:45:27;101631.56;;;4.94;100.00
7168;BME280;3625;51.762;14.320;2023-02-11T15:48:10;101648.28;;;4.98;100.00
7168;BME280;3625;51.762;14.320;2023-02-11T15:50:51;101913.81;;;6.54;100.00
7168;BME280;3625;51.762;14.320;2023-02-11T15:53:26;101717.41;;;5.46;100.00
7168;BME280;3625;51.762;14.320;2023-02-11T15:56:03;101916.47;;;6.56;100.00
7168;BME280;3625;51.762;14.320;2023-02-11T15:58:36;101921.78;;;6.57;100.00
7168;BME280;3625;51.762;14.320;2023-02-11T16:01:12;101873.19;;;6.37;100.00
7168;BME280;3625;51.762;14.320;2023-02-11T16:03:51;101919.16;;;6.60;100.00
7168;BME280;3625;51.762;14.320;2023-02-11T16:06:24;101752.75;;;5.65;100.00
7168;BME280;3625;51.762;14.320;2023-02-11T16:09:30;101594.47;;;4.73;100.00
7168;BME280;3625;51.762;14.320;2023-02-11T16:12:01;101921.09;;;6.70;100.00
7168;BME280;3625;51.762;14.320;2023-02-11T16:14:54;101805.91;;;5.95;100.00
7168;BME280;3625;51.762;14.320;2023-02-11T16:17:32;101934.19;;;6.67;100.00
7168;BME280;3625;51.762;14.320;2023-02-11T16:20:20;101939.53;;;6.70;100.00
7168;BME280;3625;51.762;14.320;2023-02-11T16:22:49;101932.59;;;6.74;100.00
7168;BME280;3625;51.762;14.320;2023-02-11T16:25:20;101927.13;;;6.63;100.00
7168;BME280;3625;51.762;14.320;2023-02-11T16:27:54;101936.91;;;6.72;100.00
7168;BME280;3625;51.762;14.320;2023-02-11T16:30:31;101878.22;;;6.25;100.00
7168;BME280;3625;51.762;14.320;2023-02-11T16:33:02;101951.88;;;6.76;100.00
7168;BME280;3625;51.762;14.320;2023-02-11T16:35:32;101958.91;;;6.77;100.00
7168;BME280;3625;51.762;14.320;2023-02-11T16:38:01;101964.16;;;6.77;100.00
7168;BME280;3625;51.762;14.320;2023-02-11T16:40:29;101969.59;;;6.86;100.00
7168;BME280;3625;51.762;14.320;2023-02-11T16:42:59;101963.41;;;6.84;100.00
7168;BME280;3625;51.762;14.320;2023-02-11T16:45:28;101956.53;;;6.92;100.00
7168;BME280;3625;51.762;14.320;2023-02-11T16:48:02;101967.06;;;6.91;100.00
7168;BME280;3625;51.762;14.320;2023-02-11T16:50:48;101961.81;;;6.94;100.00
7168;BME280;3625;51.762;14.320;2023-02-11T16:53:23;101812.19;;;6.05;100.00
7168;BME280;3625;51.762;14.320;2023-02-11T16:55:55;101966.09;;;6.87;100.00
7168;BME280;3625;51.762;14.320;2023-02-11T16:58:24;101970.47;;;6.87;100.00
7168;BME280;3625;51.762;14.320;2023-02-11T17:00:54;101965.25;;;6.88;100.00
7168;BME280;3625;51.762;14.320;2023-02-11T17:03:26;101970.53;;;6.90;100.00
7168;BME280;3625;51.762;14.320;2023-02-11T17:05:57;101975.81;;;6.90;100.00
7168;BME280;3625;51.762;14.320;2023-02-11T17:08:33;101984.59;;;6.90;100.00
7168;BME280;3625;51.762;14.320;2023-02-11T17:11:04;101987.13;;;6.86;100.00
7168;BME280;3625;51.762;14.320;2023-02-11T17:13:49;101991.59;;;6.90;100.00
7168;BME280;3625;51.762;14.320;2023-02-11T17:16:23;101916.97;;;6.35;100.00
7168;BME280;3625;51.762;14.320;2023-02-11T17:19:01;102009.19;;;6.94;100.00
7168;BME280;3625;51.762;14.320;2023-02-11T17:21:32;102014.44;;;6.94;100.00
7168;BME280;3625;51.762;14.320;2023-02-11T17:24:07;102013.63;;;6.96;100.00
7168;BME280;3625;51.762;14.320;2023-02-11T17:26:43;102019.78;;;6.97;100.00
7168;BME280;3625;51.762;14.320;2023-02-11T17:29:20;101925.03;;;6.44;100.00
7168;BME280;3625;51.762;14.320;2023-02-11T17:32:00;102018.06;;;6.99;100.00
7168;BME280;3625;51.762;14.320;2023-02-11T17:34:32;102040.00;;;7.01;100.00
7168;BME280;3625;51.762;14.320;2023-02-11T17:37:01;102029.50;;;7.02;100.00
7168;BME280;3625;51.762;14.320;2023-02-11T17:39:39;101929.47;;;6.47;100.00
7168;BME280;3625;51.762;14.320;2023-02-11T17:42:10;102023.34;;;7.02;100.00
7168;BME280;3625;51.762;14.320;2023-02-11T17:44:49;102019.06;;;7.05;100.00
7168;BME280;3625;51.762;14.320;2023-02-11T17:47:18;102020.84;;;7.08;100.00
7168;BME280;3625;51.762;14.320;2023-02-11T17:49:49;102022.59;;;7.07;100.00
7168;BME280;3625;51.762;14.320;2023-02-11T17:52:22;102026.97;;;7.07;100.00
7168;BME280;3625;51.762;14.320;2023-02-11T17:54:54;102030.47;;;7.06;100.00
7168;BME280;3625;51.762;14.320;2023-02-11T17:57:24;102035.66;;;7.03;100.00
7168;BME280;3625;51.762;14.320;2023-02-11T18:00:02;102035.78;;;7.09;100.00
7168;BME280;3625;51.762;14.320;2023-02-11T18:02:39;102038.28;;;7.03;100.00
7168;BME280;3625;51.762;14.320;2023-02-11T18:05:14;102048.84;;;7.04;100.00
7168;BME280;3625;51.762;14.320;2023-02-11T18:08:02;102051.53;;;7.07;100.00
7168;BME280;3625;51.762;14.320;2023-02-11T18:10:33;102056.81;;;7.07;100.00
7168;BME280;3625;51.762;14.320;2023-02-11T18:13:04;102052.44;;;7.08;100.00
7168;BME280;3625;51.762;14.320;2023-02-11T18:15:38;102063.03;;;7.12;100.00
7168;BME280;3625;51.762;14.320;2023-02-11T18:18:09;102065.59;;;7.09;100.00
7168;BME280;3625;51.762;14.320;2023-02-11T18:20:41;102071.75;;;7.08;100.00
7168;BME280;3625;51.762;14.320;2023-02-11T18:23:19;102076.16;;;7.11;100.00
7168;BME280;3625;51.762;14.320;2023-02-11T18:25:50;102080.53;;;7.10;100.00
7168;BME280;3625;51.762;14.320;2023-02-11T18:28:31;102084.97;;;7.13;100.00
7168;BME280;3625;51.762;14.320;2023-02-11T18:31:00;102083.16;;;7.10;100.00
7168;BME280;3625;51.762;14.320;2023-02-11T18:33:32;102091.97;;;7.12;100.00
7168;BME280;3625;51.762;14.320;2023-02-11T18:36:15;101827.97;;;5.61;100.00
7168;BME280;3625;51.762;14.320;2023-02-11T18:38:56;102101.50;;;7.06;100.00
7168;BME280;3625;51.762;14.320;2023-02-11T18:41:36;102104.22;;;7.10;100.00
7168;BME280;3625;51.762;14.320;2023-02-11T18:44:09;102103.38;;;7.11;100.00
7168;BME280;3625;51.762;14.320;2023-02-11T18:46:57;102115.66;;;7.12;100.00
7168;BME280;3625;51.762;14.320;2023-02-11T18:49:27;102109.50;;;7.12;100.00
7168;BME280;3625;51.762;14.320;2023-02-11T18:52:10;102121.03;;;7.18;100.00
7168;BME280;3625;51.762;14.320;2023-02-11T18:55:08;101905.34;;;5.80;100.00
7168;BME280;3625;51.762;14.320;2023-02-11T18:58:00;102132.22;;;7.05;100.00
7168;BME280;3625;51.762;14.320;2023-02-11T19:00:53;102139.13;;;7.02;100.00
7168;BME280;3625;51.762;14.320;2023-02-11T19:03:27;102140.03;;;7.02;100.00
7168;BME280;3625;51.762;14.320;2023-02-11T19:06:02;102160.13;;;6.97;100.00
7168;BME280;3625;51.762;14.320;2023-02-11T19:08:40;102165.38;;;6.97;100.00
7168;BME280;3625;51.762;14.320;2023-02-11T19:11:11;102172.50;;;7.03;100.00
7168;BME280;3625;51.762;14.320;2023-02-11T19:13:48;102169.81;;;7.00;100.00
7168;BME280;3625;51.762;14.320;2023-02-11T19:16:19;102166.31;;;6.99;100.00
7168;BME280;3625;51.762;14.320;2023-02-11T19:19:15;101880.72;;;5.33;100.00
7168;BME280;3625;51.762;14.320;2023-02-11T19:22:05;102175.91;;;6.97;100.00
7168;BME280;3625;51.762;14.320;2023-02-11T19:24:50;102171.56;;;6.99;100.00
7168;BME280;3625;51.762;14.320;2023-02-11T19:28:06;102175.97;;;7.00;100.00
7168;BME280;3625;51.762;14.320;2023-02-11T19:31:03;102166.16;;;6.93;100.00
7168;BME280;3625;51.762;14.320;2023-02-11T19:33:56;102174.91;;;6.91;100.00
7168;BME280;3625;51.762;14.320;2023-02-11T19:36:59;101925.78;;;5.53;100.00
7168;BME280;3625;51.762;14.320;2023-02-11T19:40:10;102175.78;;;6.93;100.00
7168;BME280;3625;51.762;14.320;2023-02-11T19:42:55;102172.19;;;6.88;100.00
7168;BME280;3625;51.762;14.320;2023-02-11T19:45:30;102180.00;;;6.85;100.00
7168;BME280;3625;51.762;14.320;2023-02-11T19:49:03;101908.59;;;5.28;100.00
7168;BME280;3625;51.762;14.320;2023-02-11T19:52:48;102189.66;;;6.82;100.00
7168;BME280;3625;51.762;14.320;2023-02-11T19:56:55;101868.38;;;4.90;100.00
7168;BME280;3625;51.762;14.320;2023-02-11T19:59:44;102200.13;;;6.81;100.00
7168;BME280;3625;51.762;14.320;2023-02-11T20:02:27;102200.94;;;6.78;100.00
7168;BME280;3625;51.762;14.320;2023-02-11T20:05:04;102201.88;;;6.80;100.00
7168;BME280;3625;51.762;14.320;2023-02-11T20:08:16;101855.81;;;4.77;100.00
7168;BME280;3625;51.762;14.320;2023-02-11T20:15:23;102212.59;;;6.90;100.00
7168;BME280;3625;51.762;14.320;2023-02-11T20:19:02;102217.88;;;6.91;100.00
7168;BME280;3625;51.762;14.320;2023-02-11T20:22:36;102217.00;;;6.91;100.00
7168;BME280;3625;51.762;14.320;2023-02-11T20:33:55;102216.97;;;6.89;100.00
7168;BME280;3625;51.762;14.320;2023-02-11T20:37:27;102216.97;;;6.89;100.00
7168;BME280;3625;51.762;14.320;2023-02-11T20:40:34;102216.97;;;6.89;100.00
7168;BME280;3625;51.762;14.320;2023-02-11T21:46:37;102301.59;;;7.10;100.00